createdAt,value
2022-09-26T00:01:37.854Z,16.54
2022-09-26T00:04:09.228Z,16.54
2022-09-26T00:06:37.642Z,16.54
2022-09-26T00:09:05.816Z,16.47
2022-09-26T00:11:35.565Z,16.59
2022-09-26T00:14:07.115Z,16.60
2022-09-26T00:16:35.378Z,16.63
2022-09-26T00:19:04.007Z,16.70
2022-09-26T00:21:32.686Z,16.75
2022-09-26T00:24:01.973Z,16.75
2022-09-26T00:26:32.250Z,16.76
2022-09-26T00:29:04.493Z,16.84
2022-09-26T00:31:35.987Z,16.85
2022-09-26T00:34:04.713Z,16.86
2022-09-26T00:36:38.427Z,16.91
2022-09-26T00:39:08.942Z,16.98
2022-09-26T00:41:38.195Z,17.01
2022-09-26T00:44:35.716Z,16.96
2022-09-26T00:47:06.559Z,17.03
2022-09-26T00:49:37.225Z,17.07
2022-09-26T00:52:10.495Z,17.17
2022-09-26T00:54:44.457Z,17.20
2022-09-26T00:57:16.480Z,17.23
2022-09-26T00:59:48.392Z,17.32
2022-09-26T01:02:18.381Z,17.31
2022-09-26T01:04:48.199Z,17.31
2022-09-26T01:07:20.591Z,17.35
2022-09-26T01:09:49.830Z,17.31
2022-09-26T01:12:19.395Z,17.31
2022-09-26T01:14:48.791Z,17.29
2022-09-26T01:17:18.487Z,17.23
2022-09-26T01:19:57.534Z,17.22
2022-09-26T01:22:56.746Z,17.08
2022-09-26T01:25:35.325Z,17.04
2022-09-26T01:28:19.696Z,17.00
2022-09-26T01:30:58.573Z,16.98
2022-09-26T01:33:42.794Z,16.89
2022-09-26T01:36:34.440Z,16.89
2022-09-26T01:39:14.707Z,16.87
2022-09-26T01:41:51.357Z,16.86
2022-09-26T01:44:30.975Z,16.82
2022-09-26T01:47:08.147Z,16.78
2022-09-26T01:49:44.282Z,16.65
2022-09-26T01:52:19.935Z,16.62
2022-09-26T01:54:54.387Z,16.57
2022-09-26T01:57:30.505Z,16.60
2022-09-26T02:00:03.359Z,16.62
2022-09-26T02:02:38.802Z,16.58
2022-09-26T02:05:13.271Z,16.57
2022-09-26T02:07:46.591Z,16.57
2022-09-26T02:10:19.816Z,16.45
2022-09-26T02:12:54.998Z,16.44
2022-09-26T02:15:26.603Z,16.46
2022-09-26T02:18:03.126Z,16.47
2022-09-26T02:20:33.243Z,16.51
2022-09-26T02:23:04.135Z,16.54
2022-09-26T02:25:32.542Z,16.57
2022-09-26T02:28:00.551Z,16.64
2022-09-26T02:30:28.657Z,16.57
2022-09-26T02:32:58.375Z,16.60
2022-09-26T02:35:44.179Z,16.57
2022-09-26T02:38:12.981Z,16.64
2022-09-26T02:40:57.227Z,16.63
2022-09-26T02:43:44.885Z,16.58
2022-09-26T02:46:40.852Z,16.59
2022-09-26T02:49:30.399Z,16.59
2022-09-26T02:52:14.319Z,16.55
2022-09-26T02:54:49.916Z,16.59
2022-09-26T02:57:34.411Z,16.54
2022-09-26T03:00:07.858Z,16.64
2022-09-26T03:02:42.011Z,16.59
2022-09-26T03:05:21.830Z,16.52
2022-09-26T03:07:57.526Z,16.54
2022-09-26T03:10:28.715Z,16.63
2022-09-26T03:13:02.638Z,16.40
2022-09-26T03:15:30.890Z,16.42
2022-09-26T03:18:00.362Z,16.41
2022-09-26T03:20:30.458Z,16.45
2022-09-26T03:22:58.578Z,16.46
2022-09-26T03:25:28.946Z,16.51
2022-09-26T03:28:08.083Z,16.28
2022-09-26T03:30:36.350Z,16.26
2022-09-26T03:33:34.300Z,16.35
2022-09-26T03:36:07.483Z,16.18
2022-09-26T03:38:35.567Z,16.22
2022-09-26T03:41:17.483Z,16.27
2022-09-26T03:44:06.892Z,16.39
2022-09-26T03:46:55.215Z,16.34
2022-09-26T03:49:23.259Z,16.32
2022-09-26T03:51:52.789Z,16.34
2022-09-26T03:54:20.801Z,16.30
2022-09-26T03:56:50.004Z,16.29
2022-09-26T03:59:18.329Z,16.32
2022-09-26T04:01:48.611Z,16.32
2022-09-26T04:04:16.702Z,16.36
2022-09-26T04:06:46.059Z,16.39
2022-09-26T04:09:17.644Z,16.33
2022-09-26T04:11:52.512Z,16.33
2022-09-26T04:14:22.025Z,16.28
2022-09-26T04:16:55.787Z,16.34
2022-09-26T04:19:28.440Z,16.35
2022-09-26T04:21:56.974Z,16.33
2022-09-26T04:24:26.798Z,16.34
2022-09-26T04:26:55.123Z,16.29
2022-09-26T04:29:23.308Z,16.26
2022-09-26T04:32:15.846Z,16.28
2022-09-26T04:35:03.850Z,16.32
2022-09-26T04:37:31.979Z,16.29
2022-09-26T04:40:01.533Z,16.29
2022-09-26T04:42:29.814Z,16.28
2022-09-26T04:44:57.819Z,16.30
2022-09-26T04:47:25.905Z,16.27
2022-09-26T04:50:26.263Z,16.27
2022-09-26T04:53:06.584Z,16.24
2022-09-26T04:55:40.586Z,16.27
2022-09-26T04:58:08.619Z,16.32
2022-09-26T05:00:37.410Z,16.30
2022-09-26T05:03:07.415Z,16.30
2022-09-26T05:05:36.285Z,16.27
2022-09-26T05:08:05.322Z,16.25
2022-09-26T05:10:33.434Z,16.22
2022-09-26T05:13:06.074Z,16.24
2022-09-26T05:15:39.096Z,16.27
2022-09-26T05:18:11.394Z,16.27
2022-09-26T05:20:40.042Z,16.25
2022-09-26T05:23:09.119Z,16.13
2022-09-26T05:25:57.461Z,16.08
2022-09-26T05:28:28.370Z,16.11
2022-09-26T05:30:57.008Z,16.12
2022-09-26T05:33:25.097Z,16.11
2022-09-26T05:35:54.799Z,16.15
2022-09-26T05:38:23.440Z,16.15
2022-09-26T05:40:59.339Z,16.17
2022-09-26T05:43:33.270Z,16.19
2022-09-26T05:46:05.098Z,16.24
2022-09-26T05:48:39.684Z,16.17
2022-09-26T05:51:13.378Z,16.25
2022-09-26T05:53:46.457Z,16.21
2022-09-26T05:56:19.631Z,16.24
2022-09-26T05:59:04.182Z,16.27
2022-09-26T06:01:50.774Z,16.24
2022-09-26T06:04:33.370Z,16.21
2022-09-26T06:07:30.580Z,16.18
2022-09-26T06:09:58.630Z,16.16
2022-09-26T06:12:42.046Z,16.24
2022-09-26T06:15:11.867Z,16.25
2022-09-26T06:17:40.082Z,16.25
2022-09-26T06:20:09.221Z,16.24
2022-09-26T06:22:41.738Z,16.25
2022-09-26T06:25:10.762Z,16.26
2022-09-26T06:27:39.533Z,16.30
2022-09-26T06:30:10.596Z,16.31
2022-09-26T06:32:40.087Z,16.29
2022-09-26T06:35:34.415Z,16.22
2022-09-26T06:38:05.829Z,16.25
2022-09-26T06:40:34.309Z,16.27
2022-09-26T06:43:02.364Z,16.32
2022-09-26T06:45:50.745Z,16.28
2022-09-26T06:48:43.429Z,16.28
2022-09-26T06:51:21.449Z,16.27
2022-09-26T06:53:49.694Z,16.35
2022-09-26T06:56:21.675Z,16.39
2022-09-26T06:58:50.979Z,16.34
2022-09-26T07:01:22.965Z,16.40
2022-09-26T07:04:11.133Z,16.40
2022-09-26T07:06:45.183Z,16.44
2022-09-26T07:09:14.433Z,16.44
2022-09-26T07:12:14.573Z,16.43
2022-09-26T07:14:44.314Z,16.42
2022-09-26T07:17:21.146Z,16.47
2022-09-26T07:20:15.448Z,16.42
2022-09-26T07:23:03.030Z,16.34
2022-09-26T07:25:32.020Z,16.22
2022-09-26T07:28:02.785Z,16.36
2022-09-26T07:30:51.263Z,16.46
2022-09-26T07:33:45.854Z,16.51
2022-09-26T07:36:15.963Z,16.54
2022-09-26T07:38:44.950Z,16.61
2022-09-26T07:41:13.189Z,16.60
2022-09-26T07:44:19.343Z,16.56
2022-09-26T07:46:47.914Z,16.55
2022-09-26T07:49:33.413Z,16.57
2022-09-26T07:52:17.458Z,16.63
2022-09-26T07:55:05.221Z,16.62
2022-09-26T07:57:53.528Z,16.55
2022-09-26T08:00:36.398Z,16.54
2022-09-26T08:03:18.102Z,16.58
2022-09-26T08:05:46.505Z,16.61
2022-09-26T08:08:15.893Z,16.60
2022-09-26T08:11:04.223Z,16.47
2022-09-26T08:13:58.266Z,16.39
2022-09-26T08:16:47.523Z,16.44
2022-09-26T08:19:17.565Z,16.54
2022-09-26T08:21:46.426Z,16.60
2022-09-26T08:24:16.162Z,16.59
2022-09-26T08:26:57.217Z,16.61
2022-09-26T08:29:32.287Z,16.73
2022-09-26T08:32:03.124Z,16.90
2022-09-26T08:34:35.051Z,16.79
2022-09-26T08:37:21.677Z,16.99
2022-09-26T08:40:11.357Z,16.88
2022-09-26T08:43:26.129Z,16.82
2022-09-26T08:46:42.512Z,16.91
2022-09-26T08:49:50.358Z,17.00
2022-09-26T08:52:29.192Z,17.18
2022-09-26T08:54:59.362Z,17.31
2022-09-26T08:57:39.924Z,17.30
2022-09-26T09:00:19.407Z,17.44
2022-09-26T09:03:06.683Z,17.60
2022-09-26T09:05:39.312Z,17.61
2022-09-26T09:08:13.890Z,17.67
2022-09-26T09:11:01.951Z,17.72
2022-09-26T09:13:52.810Z,17.74
2022-09-26T09:16:38.202Z,17.83
2022-09-26T09:19:35.268Z,17.80
2022-09-26T09:22:46.366Z,17.80
2022-09-26T09:25:23.941Z,17.77
2022-09-26T09:28:12.639Z,17.77
2022-09-26T09:30:46.704Z,17.78
2022-09-26T09:33:33.202Z,17.89
2022-09-26T09:36:22.547Z,17.80
2022-09-26T09:39:09.692Z,17.89
2022-09-26T09:42:01.585Z,17.93
2022-09-26T09:44:43.052Z,17.91
2022-09-26T09:47:17.817Z,17.99
2022-09-26T09:49:49.604Z,17.77
2022-09-26T09:52:43.737Z,17.58
2022-09-26T09:55:20.017Z,17.63
2022-09-26T09:58:16.557Z,17.95
2022-09-26T10:00:51.592Z,18.02
2022-09-26T10:03:38.877Z,17.97
2022-09-26T10:06:46.189Z,17.99
2022-09-26T10:09:36.486Z,18.02
2022-09-26T10:12:56.531Z,17.97
2022-09-26T10:16:41.479Z,17.98
2022-09-26T10:19:49.420Z,17.90
2022-09-26T10:22:34.533Z,17.89
2022-09-26T10:25:08.704Z,17.99
2022-09-26T10:28:07.347Z,17.89
2022-09-26T10:31:15.778Z,17.84
2022-09-26T10:34:20.413Z,17.70
2022-09-26T10:37:48.428Z,17.66
2022-09-26T10:40:53.357Z,17.65
2022-09-26T10:43:41.993Z,17.64
2022-09-26T10:46:20.245Z,17.67
2022-09-26T10:49:07.461Z,17.65
2022-09-26T10:52:01.761Z,17.63
2022-09-26T10:54:41.287Z,17.60
2022-09-26T10:57:20.632Z,17.63
2022-09-26T10:59:50.091Z,17.63
2022-09-26T11:02:24.161Z,17.51
2022-09-26T11:05:15.160Z,17.47
2022-09-26T11:08:08.887Z,17.26
2022-09-26T11:10:48.969Z,17.28
2022-09-26T11:13:32.363Z,17.31
2022-09-26T11:16:10.723Z,17.39
2022-09-26T11:18:51.017Z,17.46
2022-09-26T11:21:29.196Z,17.37
2022-09-26T11:24:11.857Z,17.38
2022-09-26T11:27:09.028Z,17.36
2022-09-26T11:29:45.123Z,17.36
2022-09-26T11:32:41.233Z,17.31
2022-09-26T11:35:55.543Z,17.20
2022-09-26T11:38:39.989Z,17.06
2022-09-26T11:44:55.972Z,16.92
2022-09-26T11:48:10.945Z,16.94
2022-09-26T11:51:47.111Z,16.78
2022-09-26T11:54:38.237Z,16.76
2022-09-26T11:57:34.187Z,16.80
2022-09-26T12:00:09.159Z,16.86
2022-09-26T12:03:36.826Z,16.92
2022-09-26T12:06:18.163Z,16.91
2022-09-26T12:09:15.839Z,16.89
2022-09-26T12:11:53.283Z,16.89
2022-09-26T12:14:44.371Z,16.89
2022-09-26T12:17:19.697Z,16.92
2022-09-26T12:20:00.975Z,16.95
2022-09-26T12:22:36.428Z,16.92
2022-09-26T12:25:46.032Z,16.94
2022-09-26T12:28:42.791Z,16.99
2022-09-26T12:31:18.820Z,16.98
2022-09-26T12:34:16.358Z,16.92
2022-09-26T12:37:01.849Z,16.86
2022-09-26T12:39:56.357Z,16.87
2022-09-26T12:43:14.176Z,16.89
2022-09-26T12:46:21.558Z,16.86
2022-09-26T12:52:47.729Z,16.86
2022-09-26T12:55:39.224Z,16.81
2022-09-26T12:58:24.859Z,16.87
2022-09-26T13:01:00.083Z,16.99
2022-09-26T13:03:50.439Z,17.01
2022-09-26T13:07:07.598Z,16.96
2022-09-26T13:09:52.908Z,16.92
2022-09-26T13:12:40.656Z,16.94
2022-09-26T13:15:22.745Z,16.87
2022-09-26T13:17:57.922Z,16.94
2022-09-26T13:20:32.074Z,16.96
2022-09-26T13:23:06.917Z,17.04
2022-09-26T13:25:49.294Z,17.06
2022-09-26T13:28:21.665Z,17.08
2022-09-26T13:30:55.922Z,17.16
2022-09-26T13:33:30.828Z,17.13
2022-09-26T13:36:03.539Z,17.15
2022-09-26T13:38:48.910Z,17.15
2022-09-26T13:41:32.527Z,17.09
2022-09-26T13:44:09.154Z,17.08
2022-09-26T13:46:56.116Z,17.01
2022-09-26T13:49:35.331Z,17.18
2022-09-26T13:52:19.980Z,17.19
2022-09-26T13:54:58.004Z,17.18
2022-09-26T13:57:40.247Z,17.17
2022-09-26T14:00:49.167Z,17.25
2022-09-26T14:03:49.024Z,17.31
2022-09-26T14:06:28.879Z,17.30
2022-09-26T14:09:27.809Z,17.40
2022-09-26T14:12:21.833Z,17.36
2022-09-26T14:15:15.421Z,17.26
2022-09-26T14:18:12.489Z,17.33
2022-09-26T14:20:57.179Z,17.38
2022-09-26T14:23:41.137Z,17.44
2022-09-26T14:26:14.175Z,17.46
2022-09-26T14:28:50.723Z,17.46
2022-09-26T14:31:38.621Z,17.44
2022-09-26T14:34:16.297Z,17.43
2022-09-26T14:36:47.594Z,17.30
2022-09-26T14:39:31.982Z,17.24
2022-09-26T14:42:09.098Z,17.25
2022-09-26T14:44:37.736Z,17.21
2022-09-26T14:47:16.211Z,17.26
2022-09-26T14:49:53.068Z,17.24
2022-09-26T14:52:25.339Z,17.32
2022-09-26T14:55:01.140Z,17.38
2022-09-26T14:57:31.853Z,17.37
2022-09-26T15:00:00.705Z,17.41
2022-09-26T15:02:36.805Z,17.41
2022-09-26T15:05:13.550Z,17.44
2022-09-26T15:07:47.926Z,17.47
2022-09-26T15:10:22.830Z,17.46
2022-09-26T15:12:58.350Z,17.50
2022-09-26T15:15:36.254Z,17.47
2022-09-26T15:18:09.229Z,17.49
2022-09-26T15:20:41.835Z,17.54
2022-09-26T15:23:23.422Z,17.46
2022-09-26T15:25:54.222Z,17.49
2022-09-26T15:28:24.325Z,17.54
2022-09-26T15:31:25.209Z,17.52
2022-09-26T15:33:58.321Z,17.58
2022-09-26T15:36:29.722Z,17.53
2022-09-26T15:38:59.769Z,17.53
2022-09-26T15:41:45.999Z,17.54
2022-09-26T15:44:21.983Z,17.56
2022-09-26T15:46:50.990Z,17.59
2022-09-26T15:49:28.441Z,17.61
2022-09-26T15:51:57.670Z,17.61
2022-09-26T15:54:31.369Z,17.55
2022-09-26T15:57:04.094Z,17.47
2022-09-26T15:59:40.009Z,17.46
2022-09-26T16:02:23.186Z,17.45
2022-09-26T16:04:54.905Z,17.51
2022-09-26T16:07:26.452Z,17.53
2022-09-26T16:09:57.462Z,17.52
2022-09-26T16:12:29.498Z,17.56
2022-09-26T16:15:03.563Z,17.56
2022-09-26T16:17:35.784Z,17.55
2022-09-26T16:20:22.982Z,17.55
2022-09-26T16:22:52.224Z,17.54
2022-09-26T16:25:31.570Z,17.59
2022-09-26T16:28:02.985Z,17.59
2022-09-26T16:30:42.993Z,17.60
2022-09-26T16:33:27.307Z,17.53
2022-09-26T16:35:55.975Z,17.53
2022-09-26T16:38:28.234Z,17.60
2022-09-26T16:41:03.337Z,17.63
2022-09-26T16:43:33.177Z,17.63
2022-09-26T16:46:06.616Z,17.66
2022-09-26T16:48:41.145Z,17.59
2022-09-26T16:51:15.237Z,17.54
2022-09-26T16:53:45.774Z,17.59
2022-09-26T16:56:16.978Z,17.65
2022-09-26T16:58:50.107Z,17.68
2022-09-26T17:01:36.427Z,17.66
2022-09-26T17:04:04.815Z,17.55
2022-09-26T17:06:35.146Z,17.67
2022-09-26T17:09:13.368Z,17.61
2022-09-26T17:11:43.450Z,17.60
2022-09-26T17:14:16.329Z,17.62
2022-09-26T17:16:46.950Z,17.66
2022-09-26T17:19:17.551Z,17.63
2022-09-26T17:21:46.497Z,17.64
2022-09-26T17:24:16.442Z,17.65
2022-09-26T17:26:53.326Z,17.64
2022-09-26T17:29:27.445Z,17.61
2022-09-26T17:31:57.191Z,17.65
2022-09-26T17:34:28.333Z,17.67
2022-09-26T17:36:58.591Z,17.65
2022-09-26T17:39:27.338Z,17.62
2022-09-26T17:41:57.270Z,17.55
2022-09-26T17:44:25.429Z,17.58
2022-09-26T17:46:56.216Z,17.61
2022-09-26T17:49:27.362Z,17.61
2022-09-26T17:51:57.108Z,17.65
2022-09-26T17:54:30.179Z,17.60
2022-09-26T17:57:01.085Z,17.55
2022-09-26T17:59:29.842Z,17.55
2022-09-26T18:02:01.639Z,17.53
2022-09-26T18:04:31.356Z,17.56
2022-09-26T18:07:04.432Z,17.58
2022-09-26T18:09:35.253Z,17.55
2022-09-26T18:12:05.622Z,17.49
2022-09-26T18:14:35.478Z,17.49
2022-09-26T18:17:04.377Z,17.48
2022-09-26T18:19:35.633Z,17.53
2022-09-26T18:22:07.348Z,17.51
2022-09-26T18:24:35.803Z,17.50
2022-09-26T18:27:07.280Z,17.55
2022-09-26T18:29:38.062Z,17.53
2022-09-26T18:32:11.398Z,17.50
2022-09-26T18:34:45.394Z,17.47
2022-09-26T18:37:13.539Z,17.50
2022-09-26T18:39:41.602Z,17.45
2022-09-26T18:42:20.561Z,17.45
2022-09-26T18:44:50.306Z,17.48
2022-09-26T18:47:18.982Z,17.47
2022-09-26T18:49:48.034Z,17.46
2022-09-26T18:52:18.639Z,17.47
2022-09-26T18:55:07.254Z,17.40
2022-09-26T18:57:56.011Z,17.37
2022-09-26T19:00:25.049Z,17.35
2022-09-26T19:02:54.023Z,17.33
2022-09-26T19:05:22.506Z,17.34
2022-09-26T19:07:50.812Z,17.35
2022-09-26T19:10:23.606Z,17.34
2022-09-26T19:12:53.249Z,17.34
2022-09-26T19:15:21.317Z,17.29
2022-09-26T19:17:50.631Z,17.21
2022-09-26T19:20:18.934Z,17.17
2022-09-26T19:22:47.128Z,17.15
2022-09-26T19:25:15.379Z,17.17
2022-09-26T19:27:49.658Z,17.08
2022-09-26T19:30:24.021Z,17.13
2022-09-26T19:32:57.266Z,17.22
2022-09-26T19:35:30.208Z,17.29
2022-09-26T19:37:58.877Z,17.31
2022-09-26T19:40:28.176Z,17.32
2022-09-26T19:42:57.370Z,17.33
2022-09-26T19:45:32.131Z,17.35
2022-09-26T19:48:00.852Z,17.35
2022-09-26T19:50:30.754Z,17.36
2022-09-26T19:52:59.157Z,17.31
2022-09-26T19:55:29.025Z,17.33
2022-09-26T19:58:01.569Z,17.39
2022-09-26T20:00:36.971Z,17.41
2022-09-26T20:03:05.318Z,17.46
2022-09-26T20:05:33.395Z,17.44
2022-09-26T20:08:02.327Z,17.47
2022-09-26T20:10:30.451Z,17.47
2022-09-26T20:12:58.519Z,17.49
2022-09-26T20:15:26.566Z,17.48
2022-09-26T20:17:58.410Z,17.45
2022-09-26T20:20:27.342Z,17.44
2022-09-26T20:22:56.543Z,17.40
2022-09-26T20:25:27.435Z,17.35
2022-09-26T20:27:56.102Z,17.22
2022-09-26T20:30:42.048Z,17.22
2022-09-26T20:33:13.271Z,17.22
2022-09-26T20:35:44.630Z,17.20
2022-09-26T20:38:16.491Z,17.19
2022-09-26T20:40:46.308Z,17.19
2022-09-26T20:43:20.774Z,17.19
2022-09-26T20:45:49.355Z,17.18
2022-09-26T20:48:22.033Z,17.03
2022-09-26T20:50:50.577Z,17.02
2022-09-26T20:53:19.754Z,17.13
2022-09-26T20:55:47.960Z,17.11
2022-09-26T20:58:16.219Z,17.17
2022-09-26T21:00:45.139Z,17.16
2022-09-26T21:03:15.655Z,17.17
2022-09-26T21:05:45.711Z,17.17
2022-09-26T21:08:24.299Z,17.09
2022-09-26T21:10:52.365Z,17.10
2022-09-26T21:13:20.388Z,17.05
2022-09-26T21:15:48.565Z,17.08
2022-09-26T21:18:24.988Z,17.06
2022-09-26T21:20:55.143Z,17.04
2022-09-26T21:23:44.072Z,17.00
2022-09-26T21:26:18.590Z,16.95
2022-09-26T21:28:46.954Z,16.89
2022-09-26T21:31:21.840Z,16.79
2022-09-26T21:33:50.600Z,16.66
2022-09-26T21:36:21.119Z,16.67
2022-09-26T21:38:51.848Z,16.64
2022-09-26T21:41:20.282Z,16.66
2022-09-26T21:43:52.119Z,16.70
2022-09-26T21:46:20.795Z,16.76
2022-09-26T21:48:50.093Z,16.85
2022-09-26T21:51:21.381Z,16.87
2022-09-26T21:53:53.628Z,16.85
2022-09-26T21:56:25.750Z,16.86
2022-09-26T21:58:54.051Z,16.86
2022-09-26T22:01:22.747Z,16.84
2022-09-26T22:03:50.903Z,16.86
2022-09-26T22:06:20.294Z,16.88
2022-09-26T22:08:48.354Z,16.90
2022-09-26T22:11:16.376Z,16.92
2022-09-26T22:13:44.527Z,16.90
2022-09-26T22:16:14.280Z,16.91
2022-09-26T22:18:42.571Z,16.91
2022-09-26T22:21:12.684Z,16.93
2022-09-26T22:23:42.215Z,16.95
2022-09-26T22:26:10.361Z,16.93
2022-09-26T22:28:38.369Z,16.91
2022-09-26T22:31:06.817Z,16.92
2022-09-26T22:33:35.126Z,16.90
2022-09-26T22:36:03.998Z,16.87
2022-09-26T22:38:33.725Z,16.87
2022-09-26T22:41:04.829Z,16.89
2022-09-26T22:43:34.300Z,16.85
2022-09-26T22:46:03.247Z,16.75
2022-09-26T22:48:33.065Z,16.73
2022-09-26T22:51:01.493Z,16.71
2022-09-26T22:53:31.167Z,16.73
2022-09-26T22:56:05.003Z,16.70
2022-09-26T22:58:37.661Z,16.69
2022-09-26T23:01:07.933Z,16.55
2022-09-26T23:03:36.341Z,16.45
2022-09-26T23:06:05.374Z,16.47
2022-09-26T23:08:34.075Z,16.41
2022-09-26T23:11:03.254Z,16.46
2022-09-26T23:13:32.895Z,16.51
2022-09-26T23:16:06.783Z,16.47
2022-09-26T23:18:35.612Z,16.49
2022-09-26T23:21:08.891Z,16.47
2022-09-26T23:23:37.041Z,16.45
2022-09-26T23:26:06.560Z,16.43
2022-09-26T23:28:35.000Z,16.36
2022-09-26T23:31:08.967Z,16.39
2022-09-26T23:33:37.492Z,16.40
2022-09-26T23:36:06.154Z,16.49
2022-09-26T23:38:34.990Z,16.56
2022-09-26T23:41:03.246Z,16.60
2022-09-26T23:43:31.340Z,16.61
2022-09-26T23:45:59.500Z,16.61
2022-09-26T23:48:29.352Z,16.66
2022-09-26T23:50:57.699Z,16.56
2022-09-26T23:53:26.040Z,16.52
2022-09-26T23:55:54.471Z,16.54
2022-09-26T23:58:22.590Z,16.55
